Pride Of Canterbury — MPQZ6 — position and weather

sailwx.info

Track history (hours):
 
Tides and Currents Weather Stations Pressure Air Temp Water Temp Dewpoint Dewpoint Depression Visibility Wind Speed Wind Dir Waves Ship Positions

Pride Of Canterbury

Operator: P & O Ferries

Last reported at 2017-Mar-23 17:33 UTC. Time now 2017-Mar-23 18:23 UTC.
Position N 50°58' E 001°51'.

Length 180 m; draft 5.7 m.

Type: Passenger vessel. MMSI: 232001060.

Date/timePositionNaut miles runAvg speedWind from/ knotsBaromVisibWave heightAir tempDewpointWater temp
2017-Mar-23 17:33N 50°58' E 001°51'1616.0
2017-Mar-23 16:33N 51°04' E 001°28'6 5.9
2017-Mar-23 15:33N 51°07' E 001°20'0 0.2
2017-Mar-23 14:33N 51°07' E 001°20'1818.2
2017-Mar-23 13:34N 50°58' E 001°45'4 3.6
2017-Mar-23 12:33N 50°58' E 001°51'1414.4
2017-Mar-23 11:34N 51°04' E 001°30'1 0.3
2017-Mar-23 09:33N 51°04' E 001°31'1414.1
2017-Mar-23 08:33N 50°58' E 001°51'3 3.3
2017-Mar-23 07:34N 50°58' E 001°46'1818.1
2017-Mar-23 06:33N 51°07' E 001°21'1 0.6
2017-Mar-23 05:31N 51°07' E 001°20'7 7.3
2017-Mar-23 04:34N 51°06' E 001°31'1514.8
2017-Mar-23 03:33N 50°58' E 001°51'0 0.0
2017-Mar-23 02:32N 50°58' E 001°51'1514.9
2017-Mar-23 01:33N 51°04' E 001°30'7 6.4
2017-Mar-23 00:26N 51°07' E 001°20'5 6.2
2017-Mar-22 23:33N 51°06' E 001°28'1616.1
2017-Mar-22 22:33N 50°58' E 001°51'0 0.1
2017-Mar-22 21:33N 50°58' E 001°51'1414.1
2017-Mar-22 20:33N 51°03' E 001°30'8 5.7
2017-Mar-22 19:13N 51°07' E 001°20'913.8
2017-Mar-22 18:33N 51°04' E 001°34'1212.5
2017-Mar-22 17:33N 50°58' E 001°51'6 5.5
2017-Mar-22 16:33N 50°58' E 001°42'16 8.2
2017-Mar-22 14:33N 51°07' E 001°20'1918.8
2017-Mar-22 13:33N 50°58' E 001°46'3 3.0
2017-Mar-22 12:33N 50°58' E 001°51'1515.3
2017-Mar-22 11:33N 51°04' E 001°29'6 4.8
2017-Mar-22 10:13N 51°07' E 001°20'914.1
2017-Mar-22 09:33N 51°04' E 001°34'1212.1
2017-Mar-22 08:33N 50°58' E 001°51'5 4.7
2017-Mar-22 07:34N 50°58' E 001°44'1717.3
2017-Mar-22 06:33N 51°07' E 001°20'0 0.0
2017-Mar-22 05:14N 51°07' E 001°20'812.2
2017-Mar-22 04:34N 51°05' E 001°33'1413.5
2017-Mar-22 03:33N 50°58' E 001°51'0 0.0
2017-Mar-22 02:33N 50°58' E 001°51'1515.3
2017-Mar-22 01:33N 51°03' E 001°28'7 6.6
2017-Mar-22 00:33N 51°07' E 001°20'6 5.9
2017-Mar-21 23:33N 51°06' E 001°29'1615.8
2017-Mar-21 22:33N 50°58' E 001°51'1 0.9
2017-Mar-21 21:34N 50°58' E 001°50'1817.7
2017-Mar-21 20:34N 51°06' E 001°24'3 2.5
2017-Mar-21 19:19N 51°07' E 001°20'1113.9
2017-Mar-21 18:34N 51°03' E 001°35'1110.9
2017-Mar-21 17:33N 50°58' E 001°51'6 6.3
2017-Mar-21 16:33N 50°59' E 001°41'13 6.5
2017-Mar-21 14:33N 51°07' E 001°24'1817.9
2017-Mar-21 13:33N 50°58' E 001°50'1 0.9
2017-Mar-21 12:33N 50°58' E 001°51'1615.6
2017-Mar-21 11:33N 51°03' E 001°28'6 5.1
2017-Mar-21 10:21N 51°07' E 001°20'1215.1
2017-Mar-21 09:33N 51°01' E 001°36'10 9.5
2017-Mar-21 08:32N 50°58' E 001°51'7 6.9
2017-Mar-21 07:34N 50°58' E 001°40'1612.9
2017-Mar-21 06:21N 51°07' E 001°20'0 0.0
2017-Mar-21 05:33N 51°07' E 001°20'1514.7
2017-Mar-21 04:34N 51°00' E 001°40'7 7.0
2017-Mar-21 03:33N 50°58' E 001°51'7 7.5
2017-Mar-21 02:33N 50°59' E 001°39'1514.5
2017-Mar-21 01:32N 51°07' E 001°20'1 1.5
2017-Mar-21 00:33N 51°07' E 001°22'1818.0
2017-Mar-20 23:33N 50°58' E 001°47'2 2.4
2017-Mar-20 22:34N 50°58' E 001°51'1111.5
2017-Mar-20 21:34N 50°60' E 001°33'11 9.8
2017-Mar-20 20:26N 51°07' E 001°20'3 3.3
2017-Mar-20 19:34N 51°07' E 001°25'1616.4
2017-Mar-20 18:33N 50°58' E 001°47'3 2.7
2017-Mar-20 17:32N 50°58' E 001°51'1313.4
2017-Mar-20 16:33N 51°02' E 001°31'9 6.3
2017-Mar-20 15:10N 51°07' E 001°20'710.8
2017-Mar-20 14:33N 51°05' E 001°30'1514.9
2017-Mar-20 13:34N 50°58' E 001°51'2 2.3
2017-Mar-20 12:33N 50°58' E 001°47'1717.3
2017-Mar-20 11:34N 51°06' E 001°23'2 2.1
2017-Mar-20 10:31N 51°07' E 001°20'1314.0
2017-Mar-20 09:34N 51°02' E 001°40'8 8.1
2017-Mar-20 08:33N 50°58' E 001°51'7 7.0
2017-Mar-20 07:33N 50°59' E 001°40'1514.5
2017-Mar-20 06:31N 51°07' E 001°20'0 0.0
2017-Mar-20 05:33N 51°07' E 001°20'9 9.2
2017-Mar-20 04:33N 51°03' E 001°33'1212.2
2017-Mar-20 03:32N 50°58' E 001°51'0 0.0
2017-Mar-20 02:33N 50°58' E 001°51'0 0.0
2017-Mar-20 01:33N 50°58' E 001°51'0 0.0
2017-Mar-20 00:32N 50°58' E 001°51'5 5.1
2017-Mar-19 23:33N 50°58' E 001°43'1713.2
2017-Mar-19 22:15N 51°07' E 001°20'4 5.0
2017-Mar-19 21:33N 51°06' E 001°25'1817.5
2017-Mar-19 20:34N 50°58' E 001°50'1 0.9
2017-Mar-19 19:33N 50°58' E 001°52'1313.4
2017-Mar-19 18:33N 51°02' E 001°31'9 7.6
2017-Mar-19 17:23N 51°07' E 001°20'0 0.0
2017-Mar-19 16:31N 51°07' E 001°20'7 7.1
2017-Mar-19 15:33N 51°05' E 001°30'1514.8
2017-Mar-19 14:34N 50°58' E 001°51'0 0.0
2017-Mar-19 13:32N 50°58' E 001°51'1313.4
2017-Mar-19 12:33N 51°01' E 001°31'8 3.9
2017-Mar-19 10:34N 51°07' E 001°23'1616.1
2017-Mar-19 09:34N 50°58' E 001°44'4 4.1
2017-Mar-19 08:33N 50°58' E 001°51'1111.6
2017-Mar-19 07:33N 51°02' E 001°34'1010.2
2017-Mar-19 06:33N 51°07' E 001°20'0 0.0
2017-Mar-19 05:30N 51°07' E 001°20'8 8.8
2017-Mar-19 04:34N 51°05' E 001°33'1413.5
2017-Mar-19 03:33N 50°58' E 001°51'0 0.0
2017-Mar-19 02:32N 50°58' E 001°51'1414.4
2017-Mar-19 01:33N 51°03' E 001°30'8 7.6
2017-Mar-19 00:33N 51°07' E 001°20'1515.1
2017-Mar-18 23:34N 51°00' E 001°41'7 6.7
2017-Mar-18 22:33N 50°58' E 001°51'1212.4
2017-Mar-18 21:33N 51°01' E 001°32'10 8.2
2017-Mar-18 20:22N 51°07' E 001°20'1012.6
2017-Mar-18 19:34N 51°03' E 001°35'1111.1
2017-Mar-18 18:32N 50°58' E 001°51'4 3.7
2017-Mar-18 17:33N 50°58' E 001°45'1716.8
2017-Mar-18 16:33N 51°07' E 001°22'2 1.4
2017-Mar-18 15:22N 51°07' E 001°20'911.6
2017-Mar-18 14:34N 51°03' E 001°34'1212.1
2017-Mar-18 13:33N 50°58' E 001°51'4 4.1
2017-Mar-18 12:33N 50°58' E 001°44'1816.9
2017-Mar-18 11:30N 51°07' E 001°20'1 1.1
2017-Mar-18 10:33N 51°07' E 001°22'1817.8
2017-Mar-18 09:34N 50°58' E 001°46'3 3.3
2017-Mar-18 08:33N 50°58' E 001°51'1313.5
2017-Mar-18 07:34N 51°02' E 001°30'9 7.8
2017-Mar-18 06:28N 51°07' E 001°20'7 7.6
2017-Mar-18 05:33N 51°04' E 001°30'1514.6
2017-Mar-18 04:34N 50°58' E 001°51'1 0.8
2017-Mar-18 03:33N 50°58' E 001°50'1414.3
2017-Mar-18 02:33N 51°03' E 001°29'7 5.4
2017-Mar-18 01:19N 51°07' E 001°20'5 6.9
2017-Mar-18 00:33N 51°05' E 001°28'1615.7
2017-Mar-17 23:34N 50°58' E 001°50'0 0.5
2017-Mar-17 22:31N 50°58' E 001°51'1414.9
2017-Mar-17 21:33N 51°03' E 001°29'7 6.7
2017-Mar-17 20:29N 51°07' E 001°20'7 7.4
2017-Mar-17 19:34N 51°05' E 001°31'1514.6
2017-Mar-17 18:32N 50°58' E 001°51'1 1.2
2017-Mar-17 17:33N 50°58' E 001°49'1515.5
2017-Mar-17 16:34N 51°04' E 001°26'5 4.4
2017-Mar-17 15:23N 51°07' E 001°20'1113.1
2017-Mar-17 14:34N 51°02' E 001°35'1110.7
2017-Mar-17 13:33N 50°58' E 001°51'5 5.1
2017-Mar-17 12:34N 50°58' E 001°43'1712.1
2017-Mar-17 11:08N 51°07' E 001°20'1 1.0
2017-Mar-17 10:33N 51°07' E 001°21'1918.6
2017-Mar-17 09:34N 50°58' E 001°47'3 2.8
2017-Mar-17 08:33N 50°58' E 001°51'1615.6
2017-Mar-17 07:33N 51°02' E 001°27'7 6.4
2017-Mar-17 06:27N 51°07' E 001°20'1112.8
2017-Mar-17 05:33N 51°03' E 001°37'1010.1
2017-Mar-17 04:33N 50°58' E 001°51'1413.8
2017-Mar-17 03:33N 51°03' E 001°31'8 6.5
2017-Mar-17 02:20N 51°07' E 001°20'3 3.5
2017-Mar-17 01:34N 51°07' E 001°24'1616.4
2017-Mar-17 00:34N 50°58' E 001°46'3 3.1
2017-Mar-16 23:33N 50°58' E 001°51'1111.1
2017-Mar-16 22:33N 50°60' E 001°34'11 9.4
2017-Mar-16 21:21N 51°07' E 001°20'3 4.0
2017-Mar-16 20:34N 51°07' E 001°25'1818.2
2017-Mar-16 19:34N 50°58' E 001°51'0 0.2
2017-Mar-16 18:33N 50°58' E 001°51'1615.8
2017-Mar-16 17:33N 51°03' E 001°27'6 5.5
2017-Mar-16 16:26N 51°07' E 001°20'8 9.5
2017-Mar-16 15:34N 51°05' E 001°33'1313.4
2017-Mar-16 14:33N 50°58' E 001°51'0 0.0
2017-Mar-16 13:33N 50°58' E 001°51'1817.6
2017-Mar-16 12:33N 51°05' E 001°25'4 3.7
2017-Mar-16 11:30N 51°07' E 001°20'9 9.5
2017-Mar-16 10:33N 51°04' E 001°33'1312.6
2017-Mar-16 09:33N 50°58' E 001°51'3 3.1
2017-Mar-16 08:33N 50°58' E 001°46'1717.0
2017-Mar-16 07:33N 51°06' E 001°23'2 1.6
2017-Mar-16 06:24N 51°07' E 001°20'1012.3
2017-Mar-16 05:33N 51°02' E 001°34'1111.3
2017-Mar-16 04:33N 50°58' E 001°51'2 2.0
2017-Mar-16 03:33N 50°58' E 001°48'1717.1
2017-Mar-16 02:33N 51°06' E 001°24'3 2.8
2017-Mar-16 01:32N 51°07' E 001°20'2 1.6
2017-Mar-16 00:34N 51°07' E 001°23'1111.4
2017-Mar-15 23:33N 51°01' E 001°38'9 8.7
2017-Mar-15 22:33N 50°58' E 001°51'7 6.7
2017-Mar-15 21:34N 50°59' E 001°40'1614.8
2017-Mar-15 20:31N 51°07' E 001°20'2 2.4
2017-Mar-15 19:33N 51°07' E 001°24'1716.7
2017-Mar-15 18:33N 50°58' E 001°46'3 3.0
2017-Mar-15 17:33N 50°58' E 001°51'1111.2
2017-Mar-15 16:33N 51°01' E 001°34'1110.2
2017-Mar-15 15:31N 51°07' E 001°20'4 4.4
2017-Mar-15 14:33N 51°06' E 001°26'1716.8
2017-Mar-15 13:34N 50°58' E 001°50'1 0.7
2017-Mar-15 12:32N 50°58' E 001°51'1717.3
2017-Mar-15 11:33N 51°04' E 001°26'5 4.6
2017-Mar-15 10:30N 51°07' E 001°20'1010.9
2017-Mar-15 09:34N 51°02' E 001°34'1211.5
2017-Mar-15 08:33N 50°58' E 001°51'5 4.9
2017-Mar-15 07:33N 50°58' E 001°43'1716.8
2017-Mar-15 06:33N 51°07' E 001°21'1 0.6
2017-Mar-15 05:33N 51°07' E 001°20'10 9.8
2017-Mar-15 04:33N 51°03' E 001°33'1211.6
2017-Mar-15 03:31N 50°58' E 001°51'4 4.2
2017-Mar-15 02:33N 50°58' E 001°45'1817.6
2017-Mar-15 01:33N 51°07' E 001°21'2 1.7
2017-Mar-15 00:26N 51°07' E 001°24'1214.2
2017-Mar-14 23:33N 51°01' E 001°41'7 6.9
2017-Mar-14 22:33N 50°58' E 001°51'8 8.3
2017-Mar-14 21:33N 50°58' E 001°38'1514.5
2017-Mar-14 20:32N 51°07' E 001°20'0 0.1
2017-Mar-14 19:33N 51°07' E 001°20'1818.0
2017-Mar-14 18:33N 50°58' E 001°45'4 3.9
2017-Mar-14 17:33N 50°58' E 001°51'8 8.0
2017-Mar-14 16:33N 50°60' E 001°39'1413.4
2017-Mar-14 15:31N 51°07' E 001°20'4 3.7
2017-Mar-14 14:33N 51°07' E 001°26'1716.7
2017-Mar-14 13:33N 50°58' E 001°49'1 1.4
2017-Mar-14 12:33N 50°58' E 001°51'1717.0
2017-Mar-14 11:33N 51°04' E 001°26'5 4.5
2017-Mar-14 10:26N 51°07' E 001°20'1011.6
2017-Mar-14 09:33N 51°05' E 001°36'1211.7
2017-Mar-14 08:33N 50°58' E 001°51'5 5.2
2017-Mar-14 07:33N 50°58' E 001°43'1715.8
2017-Mar-14 06:29N 51°07' E 001°20'0 0.0
2017-Mar-14 05:33N 51°07' E 001°20'7 7.3
2017-Mar-14 04:34N 51°05' E 001°31'1414.4
2017-Mar-14 03:33N 50°58' E 001°51'0 0.0
2017-Mar-14 02:33N 50°58' E 001°51'1717.5
2017-Mar-14 01:33N 51°05' E 001°25'4 4.3
2017-Mar-14 00:33N 51°07' E 001°20'1110.9
2017-Mar-13 23:34N 51°03' E 001°36'1110.7
2017-Mar-13 22:33N 50°58' E 001°51'5 4.6
2017-Mar-13 21:33N 50°58' E 001°44'1717.4
2017-Mar-13 20:33N 51°07' E 001°20'0 0.1
2017-Mar-13 19:33N 51°07' E 001°20'1616.3
2017-Mar-13 18:33N 50°59' E 001°42'6 5.5
2017-Mar-13 17:33N 50°58' E 001°51'  
Track history (hours):
 
Tides and Currents Weather Stations Pressure Air Temp Water Temp Dewpoint Dewpoint Depression Visibility Wind Speed Wind Dir Waves Ship Positions

Pride Of Canterbury

Operator: P & O Ferries

Last reported at 2017-Mar-23 17:33 UTC. Time now 2017-Mar-23 18:23 UTC.
Position N 50°58' E 001°51'.

Length 180 m; draft 5.7 m.

Type: Passenger vessel. MMSI: 232001060.

Date/timePositionNaut miles runAvg speedWind from/ knotsBaromVisibWave heightAir tempDewpointWater temp
2017-Mar-23 17:33N 50°58' E 001°51'1616.0
2017-Mar-23 16:33N 51°04' E 001°28'6 5.9
2017-Mar-23 15:33N 51°07' E 001°20'0 0.2
2017-Mar-23 14:33N 51°07' E 001°20'1818.2
2017-Mar-23 13:34N 50°58' E 001°45'4 3.6
2017-Mar-23 12:33N 50°58' E 001°51'1414.4
2017-Mar-23 11:34N 51°04' E 001°30'1 0.3
2017-Mar-23 09:33N 51°04' E 001°31'1414.1
2017-Mar-23 08:33N 50°58' E 001°51'3 3.3
2017-Mar-23 07:34N 50°58' E 001°46'1818.1
2017-Mar-23 06:33N 51°07' E 001°21'1 0.6
2017-Mar-23 05:31N 51°07' E 001°20'7 7.3
2017-Mar-23 04:34N 51°06' E 001°31'1514.8
2017-Mar-23 03:33N 50°58' E 001°51'0 0.0
2017-Mar-23 02:32N 50°58' E 001°51'1514.9
2017-Mar-23 01:33N 51°04' E 001°30'7 6.4
2017-Mar-23 00:26N 51°07' E 001°20'5 6.2
2017-Mar-22 23:33N 51°06' E 001°28'1616.1
2017-Mar-22 22:33N 50°58' E 001°51'0 0.1
2017-Mar-22 21:33N 50°58' E 001°51'1414.1
2017-Mar-22 20:33N 51°03' E 001°30'8 5.7
2017-Mar-22 19:13N 51°07' E 001°20'913.8
2017-Mar-22 18:33N 51°04' E 001°34'1212.5
2017-Mar-22 17:33N 50°58' E 001°51'6 5.5
2017-Mar-22 16:33N 50°58' E 001°42'16 8.2
2017-Mar-22 14:33N 51°07' E 001°20'1918.8
2017-Mar-22 13:33N 50°58' E 001°46'3 3.0
2017-Mar-22 12:33N 50°58' E 001°51'1515.3
2017-Mar-22 11:33N 51°04' E 001°29'6 4.8
2017-Mar-22 10:13N 51°07' E 001°20'914.1
2017-Mar-22 09:33N 51°04' E 001°34'1212.1
2017-Mar-22 08:33N 50°58' E 001°51'5 4.7
2017-Mar-22 07:34N 50°58' E 001°44'1717.3
2017-Mar-22 06:33N 51°07' E 001°20'0 0.0
2017-Mar-22 05:14N 51°07' E 001°20'812.2
2017-Mar-22 04:34N 51°05' E 001°33'1413.5
2017-Mar-22 03:33N 50°58' E 001°51'0 0.0
2017-Mar-22 02:33N 50°58' E 001°51'1515.3
2017-Mar-22 01:33N 51°03' E 001°28'7 6.6
2017-Mar-22 00:33N 51°07' E 001°20'6 5.9
2017-Mar-21 23:33N 51°06' E 001°29'1615.8
2017-Mar-21 22:33N 50°58' E 001°51'1 0.9
2017-Mar-21 21:34N 50°58' E 001°50'1817.7
2017-Mar-21 20:34N 51°06' E 001°24'3 2.5
2017-Mar-21 19:19N 51°07' E 001°20'1113.9
2017-Mar-21 18:34N 51°03' E 001°35'1110.9
2017-Mar-21 17:33N 50°58' E 001°51'6 6.3
2017-Mar-21 16:33N 50°59' E 001°41'13 6.5
2017-Mar-21 14:33N 51°07' E 001°24'1817.9
2017-Mar-21 13:33N 50°58' E 001°50'1 0.9
2017-Mar-21 12:33N 50°58' E 001°51'1615.6
2017-Mar-21 11:33N 51°03' E 001°28'6 5.1
2017-Mar-21 10:21N 51°07' E 001°20'1215.1
2017-Mar-21 09:33N 51°01' E 001°36'10 9.5
2017-Mar-21 08:32N 50°58' E 001°51'7 6.9
2017-Mar-21 07:34N 50°58' E 001°40'1612.9
2017-Mar-21 06:21N 51°07' E 001°20'0 0.0
2017-Mar-21 05:33N 51°07' E 001°20'1514.7
2017-Mar-21 04:34N 51°00' E 001°40'7 7.0
2017-Mar-21 03:33N 50°58' E 001°51'7 7.5
2017-Mar-21 02:33N 50°59' E 001°39'1514.5
2017-Mar-21 01:32N 51°07' E 001°20'1 1.5
2017-Mar-21 00:33N 51°07' E 001°22'1818.0
2017-Mar-20 23:33N 50°58' E 001°47'2 2.4
2017-Mar-20 22:34N 50°58' E 001°51'1111.5
2017-Mar-20 21:34N 50°60' E 001°33'11 9.8
2017-Mar-20 20:26N 51°07' E 001°20'3 3.3
2017-Mar-20 19:34N 51°07' E 001°25'1616.4
2017-Mar-20 18:33N 50°58' E 001°47'3 2.7
2017-Mar-20 17:32N 50°58' E 001°51'1313.4
2017-Mar-20 16:33N 51°02' E 001°31'9 6.3
2017-Mar-20 15:10N 51°07' E 001°20'710.8
2017-Mar-20 14:33N 51°05' E 001°30'1514.9
2017-Mar-20 13:34N 50°58' E 001°51'2 2.3
2017-Mar-20 12:33N 50°58' E 001°47'1717.3
2017-Mar-20 11:34N 51°06' E 001°23'2 2.1
2017-Mar-20 10:31N 51°07' E 001°20'1314.0
2017-Mar-20 09:34N 51°02' E 001°40'8 8.1
2017-Mar-20 08:33N 50°58' E 001°51'7 7.0
2017-Mar-20 07:33N 50°59' E 001°40'1514.5
2017-Mar-20 06:31N 51°07' E 001°20'0 0.0
2017-Mar-20 05:33N 51°07' E 001°20'9 9.2
2017-Mar-20 04:33N 51°03' E 001°33'1212.2
2017-Mar-20 03:32N 50°58' E 001°51'0 0.0
2017-Mar-20 02:33N 50°58' E 001°51'0 0.0
2017-Mar-20 01:33N 50°58' E 001°51'0 0.0
2017-Mar-20 00:32N 50°58' E 001°51'5 5.1
2017-Mar-19 23:33N 50°58' E 001°43'1713.2
2017-Mar-19 22:15N 51°07' E 001°20'4 5.0
2017-Mar-19 21:33N 51°06' E 001°25'1817.5
2017-Mar-19 20:34N 50°58' E 001°50'1 0.9
2017-Mar-19 19:33N 50°58' E 001°52'1313.4
2017-Mar-19 18:33N 51°02' E 001°31'9 7.6
2017-Mar-19 17:23N 51°07' E 001°20'0 0.0
2017-Mar-19 16:31N 51°07' E 001°20'7 7.1
2017-Mar-19 15:33N 51°05' E 001°30'1514.8
2017-Mar-19 14:34N 50°58' E 001°51'0 0.0
2017-Mar-19 13:32N 50°58' E 001°51'1313.4
2017-Mar-19 12:33N 51°01' E 001°31'8 3.9
2017-Mar-19 10:34N 51°07' E 001°23'1616.1
2017-Mar-19 09:34N 50°58' E 001°44'4 4.1
2017-Mar-19 08:33N 50°58' E 001°51'1111.6
2017-Mar-19 07:33N 51°02' E 001°34'1010.2
2017-Mar-19 06:33N 51°07' E 001°20'0 0.0
2017-Mar-19 05:30N 51°07' E 001°20'8 8.8
2017-Mar-19 04:34N 51°05' E 001°33'1413.5
2017-Mar-19 03:33N 50°58' E 001°51'0 0.0
2017-Mar-19 02:32N 50°58' E 001°51'1414.4
2017-Mar-19 01:33N 51°03' E 001°30'8 7.6
2017-Mar-19 00:33N 51°07' E 001°20'1515.1
2017-Mar-18 23:34N 51°00' E 001°41'7 6.7
2017-Mar-18 22:33N 50°58' E 001°51'1212.4
2017-Mar-18 21:33N 51°01' E 001°32'10 8.2
2017-Mar-18 20:22N 51°07' E 001°20'1012.6
2017-Mar-18 19:34N 51°03' E 001°35'1111.1
2017-Mar-18 18:32N 50°58' E 001°51'4 3.7
2017-Mar-18 17:33N 50°58' E 001°45'1716.8
2017-Mar-18 16:33N 51°07' E 001°22'2 1.4
2017-Mar-18 15:22N 51°07' E 001°20'911.6
2017-Mar-18 14:34N 51°03' E 001°34'1212.1
2017-Mar-18 13:33N 50°58' E 001°51'4 4.1
2017-Mar-18 12:33N 50°58' E 001°44'1816.9
2017-Mar-18 11:30N 51°07' E 001°20'1 1.1
2017-Mar-18 10:33N 51°07' E 001°22'1817.8
2017-Mar-18 09:34N 50°58' E 001°46'3 3.3
2017-Mar-18 08:33N 50°58' E 001°51'1313.5
2017-Mar-18 07:34N 51°02' E 001°30'9 7.8
2017-Mar-18 06:28N 51°07' E 001°20'7 7.6
2017-Mar-18 05:33N 51°04' E 001°30'1514.6
2017-Mar-18 04:34N 50°58' E 001°51'1 0.8
2017-Mar-18 03:33N 50°58' E 001°50'1414.3
2017-Mar-18 02:33N 51°03' E 001°29'7 5.4
2017-Mar-18 01:19N 51°07' E 001°20'5 6.9
2017-Mar-18 00:33N 51°05' E 001°28'1615.7
2017-Mar-17 23:34N 50°58' E 001°50'0 0.5
2017-Mar-17 22:31N 50°58' E 001°51'1414.9
2017-Mar-17 21:33N 51°03' E 001°29'7 6.7
2017-Mar-17 20:29N 51°07' E 001°20'7 7.4
2017-Mar-17 19:34N 51°05' E 001°31'1514.6
2017-Mar-17 18:32N 50°58' E 001°51'1 1.2
2017-Mar-17 17:33N 50°58' E 001°49'1515.5
2017-Mar-17 16:34N 51°04' E 001°26'5 4.4
2017-Mar-17 15:23N 51°07' E 001°20'1113.1
2017-Mar-17 14:34N 51°02' E 001°35'1110.7
2017-Mar-17 13:33N 50°58' E 001°51'5 5.1
2017-Mar-17 12:34N 50°58' E 001°43'1712.1
2017-Mar-17 11:08N 51°07' E 001°20'1 1.0
2017-Mar-17 10:33N 51°07' E 001°21'1918.6
2017-Mar-17 09:34N 50°58' E 001°47'3 2.8
2017-Mar-17 08:33N 50°58' E 001°51'1615.6
2017-Mar-17 07:33N 51°02' E 001°27'7 6.4
2017-Mar-17 06:27N 51°07' E 001°20'1112.8
2017-Mar-17 05:33N 51°03' E 001°37'1010.1
2017-Mar-17 04:33N 50°58' E 001°51'1413.8
2017-Mar-17 03:33N 51°03' E 001°31'8 6.5
2017-Mar-17 02:20N 51°07' E 001°20'3 3.5
2017-Mar-17 01:34N 51°07' E 001°24'1616.4
2017-Mar-17 00:34N 50°58' E 001°46'3 3.1
2017-Mar-16 23:33N 50°58' E 001°51'1111.1
2017-Mar-16 22:33N 50°60' E 001°34'11 9.4
2017-Mar-16 21:21N 51°07' E 001°20'3 4.0
2017-Mar-16 20:34N 51°07' E 001°25'1818.2
2017-Mar-16 19:34N 50°58' E 001°51'0 0.2
2017-Mar-16 18:33N 50°58' E 001°51'1615.8
2017-Mar-16 17:33N 51°03' E 001°27'6 5.5
2017-Mar-16 16:26N 51°07' E 001°20'8 9.5
2017-Mar-16 15:34N 51°05' E 001°33'1313.4
2017-Mar-16 14:33N 50°58' E 001°51'0 0.0
2017-Mar-16 13:33N 50°58' E 001°51'1817.6
2017-Mar-16 12:33N 51°05' E 001°25'4 3.7
2017-Mar-16 11:30N 51°07' E 001°20'9 9.5
2017-Mar-16 10:33N 51°04' E 001°33'1312.6
2017-Mar-16 09:33N 50°58' E 001°51'3 3.1
2017-Mar-16 08:33N 50°58' E 001°46'1717.0
2017-Mar-16 07:33N 51°06' E 001°23'2 1.6
2017-Mar-16 06:24N 51°07' E 001°20'1012.3
2017-Mar-16 05:33N 51°02' E 001°34'1111.3
2017-Mar-16 04:33N 50°58' E 001°51'2 2.0
2017-Mar-16 03:33N 50°58' E 001°48'1717.1
2017-Mar-16 02:33N 51°06' E 001°24'3 2.8
2017-Mar-16 01:32N 51°07' E 001°20'2 1.6
2017-Mar-16 00:34N 51°07' E 001°23'1111.4
2017-Mar-15 23:33N 51°01' E 001°38'9 8.7
2017-Mar-15 22:33N 50°58' E 001°51'7 6.7
2017-Mar-15 21:34N 50°59' E 001°40'1614.8
2017-Mar-15 20:31N 51°07' E 001°20'2 2.4
2017-Mar-15 19:33N 51°07' E 001°24'1716.7
2017-Mar-15 18:33N 50°58' E 001°46'3 3.0
2017-Mar-15 17:33N 50°58' E 001°51'1111.2
2017-Mar-15 16:33N 51°01' E 001°34'1110.2
2017-Mar-15 15:31N 51°07' E 001°20'4 4.4
2017-Mar-15 14:33N 51°06' E 001°26'1716.8
2017-Mar-15 13:34N 50°58' E 001°50'1 0.7
2017-Mar-15 12:32N 50°58' E 001°51'1717.3
2017-Mar-15 11:33N 51°04' E 001°26'5 4.6
2017-Mar-15 10:30N 51°07' E 001°20'1010.9
2017-Mar-15 09:34N 51°02' E 001°34'1211.5
2017-Mar-15 08:33N 50°58' E 001°51'5 4.9
2017-Mar-15 07:33N 50°58' E 001°43'1716.8
2017-Mar-15 06:33N 51°07' E 001°21'1 0.6
2017-Mar-15 05:33N 51°07' E 001°20'10 9.8
2017-Mar-15 04:33N 51°03' E 001°33'1211.6
2017-Mar-15 03:31N 50°58' E 001°51'4 4.2
2017-Mar-15 02:33N 50°58' E 001°45'1817.6
2017-Mar-15 01:33N 51°07' E 001°21'2 1.7
2017-Mar-15 00:26N 51°07' E 001°24'1214.2
2017-Mar-14 23:33N 51°01' E 001°41'7 6.9
2017-Mar-14 22:33N 50°58' E 001°51'8 8.3
2017-Mar-14 21:33N 50°58' E 001°38'1514.5
2017-Mar-14 20:32N 51°07' E 001°20'0 0.1
2017-Mar-14 19:33N 51°07' E 001°20'1818.0
2017-Mar-14 18:33N 50°58' E 001°45'4 3.9
2017-Mar-14 17:33N 50°58' E 001°51'8 8.0
2017-Mar-14 16:33N 50°60' E 001°39'1413.4
2017-Mar-14 15:31N 51°07' E 001°20'4 3.7
2017-Mar-14 14:33N 51°07' E 001°26'1716.7
2017-Mar-14 13:33N 50°58' E 001°49'1 1.4
2017-Mar-14 12:33N 50°58' E 001°51'1717.0
2017-Mar-14 11:33N 51°04' E 001°26'5 4.5
2017-Mar-14 10:26N 51°07' E 001°20'1011.6
2017-Mar-14 09:33N 51°05' E 001°36'1211.7
2017-Mar-14 08:33N 50°58' E 001°51'5 5.2
2017-Mar-14 07:33N 50°58' E 001°43'1715.8
2017-Mar-14 06:29N 51°07' E 001°20'0 0.0
2017-Mar-14 05:33N 51°07' E 001°20'7 7.3
2017-Mar-14 04:34N 51°05' E 001°31'1414.4
2017-Mar-14 03:33N 50°58' E 001°51'0 0.0
2017-Mar-14 02:33N 50°58' E 001°51'1717.5
2017-Mar-14 01:33N 51°05' E 001°25'4 4.3
2017-Mar-14 00:33N 51°07' E 001°20'1110.9
2017-Mar-13 23:34N 51°03' E 001°36'1110.7
2017-Mar-13 22:33N 50°58' E 001°51'5 4.6
2017-Mar-13 21:33N 50°58' E 001°44'1717.4
2017-Mar-13 20:33N 51°07' E 001°20'0 0.1
2017-Mar-13 19:33N 51°07' E 001°20'1616.3
2017-Mar-13 18:33N 50°59' E 001°42'6 5.5
2017-Mar-13 17:33N 50°58' E 001°51'  

Dump ship's entire track history